createdAt,value
2018-04-24T00:00:32.250Z,87.60
2018-04-24T00:03:00.132Z,87.60
2018-04-24T00:05:28.014Z,87.50
2018-04-24T00:07:55.894Z,87.50
2018-04-24T00:10:23.834Z,87.30
2018-04-24T00:12:52.889Z,87.40
2018-04-24T00:15:21.096Z,87.30
2018-04-24T00:17:49.746Z,87.10
2018-04-24T00:20:17.681Z,87.10
2018-04-24T00:22:45.546Z,87.00
2018-04-24T00:25:13.462Z,86.80
2018-04-24T00:27:42.079Z,86.90
2018-04-24T00:30:09.980Z,86.80
2018-04-24T00:32:37.906Z,86.90
2018-04-24T00:35:05.794Z,87.00
2018-04-24T00:37:33.763Z,86.90
2018-04-24T00:40:01.639Z,86.80
2018-04-24T00:42:30.415Z,86.40
2018-04-24T00:44:58.298Z,86.20
2018-04-24T00:47:26.198Z,86.20
2018-04-24T00:49:54.890Z,86.80
2018-04-24T00:52:23.746Z,85.90
2018-04-24T00:54:52.953Z,85.40
2018-04-24T00:57:21.077Z,85.40
2018-04-24T00:59:49.007Z,85.30
2018-04-24T01:02:17.650Z,85.00
2018-04-24T01:04:45.593Z,84.90
2018-04-24T01:07:13.487Z,84.80
2018-04-24T01:09:41.357Z,84.80
2018-04-24T01:12:09.768Z,84.80
2018-04-24T01:14:38.416Z,84.80
2018-04-24T01:17:06.768Z,84.80
2018-04-24T01:19:34.665Z,85.70
2018-04-24T01:22:02.558Z,85.20
2018-04-24T01:24:31.177Z,85.70
2018-04-24T01:26:59.077Z,85.70
2018-04-24T01:29:26.962Z,85.80
2018-04-24T01:31:55.634Z,85.90
2018-04-24T01:34:24.318Z,85.90
2018-04-24T01:36:52.186Z,85.80
2018-04-24T01:39:20.099Z,85.80
2018-04-24T01:41:47.976Z,85.90
2018-04-24T01:44:15.914Z,85.80
2018-04-24T01:46:43.791Z,85.90
2018-04-24T01:49:11.697Z,85.70
2018-04-24T01:51:39.676Z,85.70
2018-04-24T01:54:07.589Z,85.70
2018-04-24T01:56:35.527Z,85.70
2018-04-24T01:59:03.437Z,85.70
2018-04-24T02:01:31.333Z,85.70
2018-04-24T02:03:59.227Z,85.70
2018-04-24T02:06:27.946Z,85.80
2018-04-24T02:08:55.850Z,85.70
2018-04-24T02:14:36.047Z,85.80
2018-04-24T02:17:04.704Z,85.80
2018-04-24T02:19:32.646Z,85.80
2018-04-24T02:22:00.537Z,85.90
2018-04-24T02:24:28.458Z,85.90
2018-04-24T02:26:56.324Z,86.00
2018-04-24T02:29:24.329Z,86.00
2018-04-24T02:31:53.521Z,86.10
2018-04-24T02:34:22.172Z,86.20
2018-04-24T02:36:51.238Z,86.00
2018-04-24T02:39:19.026Z,86.10
2018-04-24T02:41:46.874Z,86.20
2018-04-24T02:44:14.763Z,86.20
2018-04-24T02:46:42.702Z,86.20
2018-04-24T02:49:10.564Z,86.30
2018-04-24T02:51:38.498Z,86.30
2018-04-24T02:54:06.366Z,86.20
2018-04-24T02:56:34.303Z,86.10
2018-04-24T02:59:02.229Z,86.20
2018-04-24T03:01:30.048Z,86.10
2018-04-24T03:03:57.889Z,86.20
2018-04-24T03:06:29.057Z,86.30
2018-04-24T03:08:56.927Z,86.30
2018-04-24T03:11:24.807Z,86.30
2018-04-24T03:13:53.268Z,86.30
2018-04-24T03:16:21.175Z,86.40
2018-04-24T03:18:48.985Z,86.30
2018-04-24T03:21:16.816Z,86.30
2018-04-24T03:23:44.649Z,86.30
2018-04-24T03:26:12.523Z,86.30
2018-04-24T03:28:40.328Z,86.40
2018-04-24T03:31:08.113Z,86.50
2018-04-24T03:33:35.893Z,86.60
2018-04-24T03:36:03.797Z,86.70
2018-04-24T03:38:32.414Z,87.10
2018-04-24T03:41:00.211Z,86.50
2018-04-24T03:43:27.990Z,86.60
2018-04-24T03:45:55.789Z,86.60
2018-04-24T03:48:24.285Z,86.60
2018-04-24T03:50:52.090Z,87.40
2018-04-24T03:53:20.698Z,86.60
2018-04-24T03:55:48.537Z,86.60
2018-04-24T03:58:16.343Z,86.60
2018-04-24T04:00:44.197Z,86.60
2018-04-24T04:03:12.011Z,86.60
2018-04-24T04:05:39.886Z,86.60
2018-04-24T04:08:07.674Z,86.60
2018-04-24T04:10:35.509Z,86.60
2018-04-24T04:13:03.097Z,86.60
2018-04-24T04:15:30.913Z,86.60
2018-04-24T04:18:10.469Z,86.60
2018-04-24T04:29:38.154Z,86.30
2018-04-24T04:32:05.760Z,86.50
2018-04-24T04:34:33.351Z,87.30
2018-04-24T04:37:01.312Z,86.60
2018-04-24T04:39:28.894Z,86.70
2018-04-24T04:41:56.496Z,86.60
2018-04-24T04:44:24.082Z,86.60
2018-04-24T04:46:51.684Z,86.60
2018-04-24T04:49:19.295Z,86.50
2018-04-24T04:51:46.877Z,86.60
2018-04-24T04:54:14.736Z,86.70
2018-04-24T04:56:42.525Z,87.40
2018-04-24T04:59:10.129Z,86.60
2018-04-24T05:01:37.943Z,86.60
2018-04-24T05:04:05.545Z,86.70
2018-04-24T05:06:33.393Z,86.70
2018-04-24T05:09:01.804Z,86.70
2018-04-24T05:11:29.654Z,86.70
2018-04-24T05:13:57.480Z,86.80
2018-04-24T05:16:25.333Z,86.80
2018-04-24T05:18:53.146Z,86.90
2018-04-24T05:21:20.969Z,87.70
2018-04-24T05:23:48.836Z,87.10
2018-04-24T05:26:16.691Z,87.10
2018-04-24T05:28:44.462Z,87.00
2018-04-24T05:31:12.298Z,87.10
2018-04-24T05:33:40.092Z,87.10
2018-04-24T05:36:07.917Z,87.10
2018-04-24T05:38:35.713Z,87.10
2018-04-24T05:41:03.548Z,87.00
2018-04-24T05:43:31.980Z,86.90
2018-04-24T05:45:59.828Z,86.80
2018-04-24T05:48:28.383Z,86.70
2018-04-24T05:50:56.760Z,86.50
2018-04-24T05:53:24.617Z,86.40
2018-04-24T05:55:52.427Z,86.40
2018-04-24T05:58:20.281Z,86.20
2018-04-24T06:00:48.118Z,85.90
2018-04-24T06:03:15.974Z,85.60
2018-04-24T06:05:44.563Z,85.30
2018-04-24T06:08:13.115Z,85.00
2018-04-24T06:10:40.966Z,84.90
2018-04-24T06:13:08.780Z,84.60
2018-04-24T06:15:36.633Z,84.20
2018-04-24T06:18:04.485Z,84.00
2018-04-24T06:20:33.129Z,83.50
2018-04-24T06:23:02.329Z,83.60
2018-04-24T06:25:30.163Z,83.50
2018-04-24T06:27:57.999Z,81.90
2018-04-24T06:30:25.812Z,81.80
2018-04-24T06:32:54.423Z,80.50
2018-04-24T06:35:22.224Z,80.40
2018-04-24T06:37:50.078Z,79.80
2018-04-24T06:40:17.878Z,79.00
2018-04-24T06:42:46.591Z,78.60
2018-04-24T06:45:15.420Z,78.20
2018-04-24T06:47:45.168Z,77.60
2018-04-24T06:50:13.754Z,76.60
2018-04-24T06:52:41.637Z,76.60
2018-04-24T06:55:09.566Z,76.20
2018-04-24T06:57:37.335Z,75.50
2018-04-24T07:00:06.015Z,75.40
2018-04-24T07:02:34.588Z,74.50
2018-04-24T07:05:02.189Z,74.50
2018-04-24T07:07:29.983Z,74.30
2018-04-24T07:09:57.834Z,73.70
2018-04-24T07:12:25.662Z,72.70
2018-04-24T07:14:53.537Z,72.70
2018-04-24T07:17:21.139Z,72.40
2018-04-24T07:19:49.710Z,71.40
2018-04-24T07:22:18.344Z,70.90
2018-04-24T07:24:46.707Z,70.90
2018-04-24T07:27:15.339Z,70.00
2018-04-24T07:29:43.178Z,69.30
2018-04-24T07:32:11.049Z,68.50
2018-04-24T07:34:38.817Z,68.00
2018-04-24T07:37:06.674Z,67.60
2018-04-24T07:39:34.618Z,67.00
2018-04-24T07:42:02.233Z,66.40
2018-04-24T07:44:30.141Z,65.90
2018-04-24T07:46:58.043Z,65.50
2018-04-24T07:49:25.973Z,64.90
2018-04-24T07:51:53.866Z,64.20
2018-04-24T07:54:21.753Z,63.90
2018-04-24T07:56:49.697Z,63.20
2018-04-24T07:59:17.542Z,63.20
2018-04-24T08:01:46.351Z,63.40
2018-04-24T08:04:14.197Z,63.00
2018-04-24T08:06:42.819Z,62.80
2018-04-24T08:09:10.685Z,62.70
2018-04-24T08:11:38.485Z,62.70
2018-04-24T08:14:06.331Z,62.50
2018-04-24T08:16:34.205Z,62.00
2018-04-24T08:19:02.017Z,61.30
2018-04-24T08:21:30.565Z,60.90
2018-04-24T08:23:58.430Z,60.80
2018-04-24T08:26:26.229Z,60.20
2018-04-24T08:28:53.828Z,59.30
2018-04-24T08:31:21.675Z,58.70
2018-04-24T08:33:49.471Z,58.80
2018-04-24T08:36:18.101Z,58.10
2018-04-24T08:38:46.644Z,58.10
2018-04-24T08:41:14.508Z,58.00
2018-04-24T08:43:42.326Z,58.20
2018-04-24T08:46:10.258Z,58.80
2018-04-24T08:48:39.461Z,58.90
2018-04-24T08:51:07.469Z,58.30
2018-04-24T08:53:35.290Z,57.80
2018-04-24T08:56:03.052Z,57.60
2018-04-24T08:58:30.898Z,57.00
2018-04-24T09:00:58.671Z,56.10
2018-04-24T09:03:26.665Z,55.10
2018-04-24T09:05:54.558Z,54.60
2018-04-24T09:08:22.409Z,55.00
2018-04-24T09:10:50.013Z,55.30
2018-04-24T09:13:17.808Z,55.20
2018-04-24T09:15:45.666Z,55.10
2018-04-24T09:18:13.479Z,55.40
2018-04-24T09:20:42.083Z,55.80
2018-04-24T09:23:09.886Z,55.70
2018-04-24T09:25:37.680Z,55.70
2018-04-24T09:28:06.274Z,55.30
2018-04-24T09:30:34.084Z,55.30
2018-04-24T09:33:01.922Z,55.30
2018-04-24T09:35:29.730Z,54.30
2018-04-24T09:37:57.507Z,53.30
2018-04-24T09:40:25.358Z,53.20
2018-04-24T09:42:53.169Z,53.30
2018-04-24T09:45:21.730Z,52.30
2018-04-24T09:47:49.586Z,52.30
2018-04-24T09:50:17.267Z,52.90
2018-04-24T09:52:45.883Z,53.70
2018-04-24T09:55:13.669Z,53.70
2018-04-24T09:57:41.269Z,53.80
2018-04-24T10:00:09.178Z,53.80
2018-04-24T10:02:38.560Z,53.20
2018-04-24T10:05:07.716Z,53.00
2018-04-24T10:07:36.868Z,53.00
2018-04-24T10:10:04.758Z,53.60
2018-04-24T10:12:33.260Z,54.10
2018-04-24T10:15:01.158Z,54.50
2018-04-24T10:17:28.826Z,54.70
2018-04-24T10:19:56.471Z,55.20
2018-04-24T10:22:24.145Z,55.60
2018-04-24T10:24:52.039Z,56.10
2018-04-24T10:27:19.731Z,55.50
2018-04-24T10:29:47.576Z,54.90
2018-04-24T10:32:15.504Z,54.40
2018-04-24T10:34:43.378Z,53.90
2018-04-24T10:37:11.254Z,54.00
2018-04-24T10:39:39.120Z,54.20
2018-04-24T10:42:07.782Z,54.40
2018-04-24T10:44:35.701Z,54.40
2018-04-24T10:47:03.572Z,54.80
2018-04-24T10:49:32.234Z,53.90
2018-04-24T10:52:00.083Z,53.80
2018-04-24T10:54:28.004Z,53.00
2018-04-24T10:56:55.881Z,52.60
2018-04-24T10:59:24.624Z,51.00
2018-04-24T11:01:52.511Z,51.00
2018-04-24T11:04:20.421Z,50.80
2018-04-24T11:06:48.318Z,50.40
2018-04-24T11:09:16.180Z,50.40
2018-04-24T11:11:44.083Z,50.70
2018-04-24T11:14:12.725Z,51.90
2018-04-24T11:16:40.616Z,51.30
2018-04-24T11:19:09.294Z,51.40
2018-04-24T11:21:38.041Z,51.80
2018-04-24T11:24:05.976Z,51.70
2018-04-24T11:26:33.855Z,51.70
2018-04-24T11:29:01.730Z,51.70
2018-04-24T11:31:29.618Z,51.60
2018-04-24T11:33:58.188Z,51.70
2018-04-24T11:36:26.041Z,51.60
2018-04-24T11:38:53.990Z,51.40
2018-04-24T11:41:21.993Z,51.20
2018-04-24T11:43:49.871Z,51.20
2018-04-24T11:46:17.761Z,51.40
2018-04-24T11:48:45.642Z,51.60
2018-04-24T11:51:14.349Z,50.90
2018-04-24T11:53:42.204Z,50.70
2018-04-24T11:56:10.747Z,50.80
2018-04-24T11:58:38.651Z,50.90
2018-04-24T12:01:06.513Z,50.80
2018-04-24T12:03:34.419Z,50.00
2018-04-24T12:06:03.073Z,49.30
2018-04-24T12:08:30.998Z,49.30
2018-04-24T12:10:58.875Z,49.10
2018-04-24T12:13:26.778Z,49.30
2018-04-24T12:15:55.026Z,49.00
2018-04-24T12:18:22.903Z,47.70
2018-04-24T12:20:51.066Z,47.70
2018-04-24T12:23:18.929Z,47.70
2018-04-24T12:25:46.894Z,48.30
2018-04-24T12:28:14.783Z,48.40
2018-04-24T12:30:43.493Z,48.80
2018-04-24T12:33:11.728Z,48.70
2018-04-24T12:35:39.652Z,49.10
2018-04-24T12:38:07.626Z,49.00
2018-04-24T12:40:35.472Z,48.30
2018-04-24T12:43:03.401Z,47.50
2018-04-24T12:45:31.314Z,46.40
2018-04-24T12:48:00.099Z,46.40
2018-04-24T12:50:28.071Z,46.40
2018-04-24T12:52:55.896Z,47.10
2018-04-24T12:55:24.199Z,47.10
2018-04-24T12:57:52.245Z,47.30
2018-04-24T13:00:20.109Z,47.80
2018-04-24T13:02:49.124Z,48.50
2018-04-24T13:05:17.035Z,48.50
2018-04-24T13:07:44.948Z,49.10
2018-04-24T13:10:13.111Z,49.10
2018-04-24T13:12:41.045Z,48.90
2018-04-24T13:15:09.947Z,48.70
2018-04-24T13:17:38.684Z,48.60
2018-04-24T13:20:07.451Z,48.30
2018-04-24T13:22:35.371Z,48.20
2018-04-24T13:25:03.246Z,47.90
2018-04-24T13:27:31.501Z,47.70
2018-04-24T13:29:59.455Z,47.10
2018-04-24T13:32:28.113Z,45.40
2018-04-24T13:34:56.006Z,45.40
2018-04-24T13:37:24.923Z,43.90
2018-04-24T13:39:52.868Z,43.80
2018-04-24T13:42:20.753Z,44.00
2018-04-24T13:53:37.203Z,44.10
2018-04-24T13:56:05.898Z,43.90
2018-04-24T13:58:33.753Z,43.80
2018-04-24T14:01:01.641Z,43.70
2018-04-24T14:03:29.753Z,44.00
2018-04-24T14:05:58.425Z,44.10
2018-04-24T14:08:27.121Z,44.50
2018-04-24T14:10:55.797Z,44.50
2018-04-24T14:13:24.510Z,45.00
2018-04-24T14:15:52.400Z,44.80
2018-04-24T14:18:20.281Z,44.70
2018-04-24T14:20:48.192Z,44.30
2018-04-24T14:23:16.043Z,44.10
2018-04-24T14:25:43.949Z,43.90
2018-04-24T14:28:11.965Z,43.80
2018-04-24T14:30:39.893Z,44.20
2018-04-24T14:33:08.920Z,44.00
2018-04-24T14:35:36.797Z,44.00
2018-04-24T14:38:04.765Z,43.70
2018-04-24T14:40:32.657Z,43.70
2018-04-24T14:43:01.312Z,43.70
2018-04-24T14:45:29.849Z,43.70
2018-04-24T14:47:57.759Z,43.40
2018-04-24T14:50:25.622Z,43.00
2018-04-24T14:52:54.309Z,42.90
2018-04-24T14:55:22.989Z,42.40
2018-04-24T14:57:51.621Z,42.40
2018-04-24T15:00:19.577Z,42.30
2018-04-24T15:02:47.471Z,42.10
2018-04-24T15:05:15.389Z,42.40
2018-04-24T15:07:43.272Z,42.60
2018-04-24T15:10:11.191Z,42.60
2018-04-24T15:12:39.867Z,42.20
2018-04-24T15:15:08.604Z,42.50
2018-04-24T15:17:36.470Z,42.50
2018-04-24T15:20:04.516Z,43.10
2018-04-24T15:22:32.391Z,44.00
2018-04-24T15:25:00.253Z,44.80
2018-04-24T15:27:28.189Z,45.20
2018-04-24T15:29:56.086Z,46.30
2018-04-24T15:32:24.772Z,46.10
2018-04-24T15:34:53.538Z,45.70
2018-04-24T15:37:21.439Z,45.70
2018-04-24T15:39:49.307Z,45.60
2018-04-24T15:42:17.215Z,45.80
2018-04-24T15:44:45.130Z,46.10
2018-04-24T15:47:13.009Z,47.20
2018-04-24T15:49:41.380Z,47.30
2018-04-24T15:52:09.222Z,47.20
2018-04-24T15:54:37.145Z,47.30
2018-04-24T15:57:05.794Z,47.70
2018-04-24T15:59:33.719Z,47.70
2018-04-24T16:02:01.526Z,47.60
2018-04-24T16:04:30.372Z,47.60
2018-04-24T16:06:58.016Z,47.70
2018-04-24T16:09:25.691Z,48.10
2018-04-24T16:11:53.350Z,48.70
2018-04-24T16:14:21.042Z,48.70
2018-04-24T16:16:48.726Z,49.10
2018-04-24T16:19:16.392Z,49.10
2018-04-24T16:21:44.009Z,49.30
2018-04-24T16:24:11.670Z,49.70
2018-04-24T16:26:39.321Z,49.80
2018-04-24T16:29:06.955Z,49.70
2018-04-24T16:31:34.572Z,50.40
2018-04-24T16:34:02.227Z,50.10
2018-04-24T16:36:30.450Z,50.20
2018-04-24T16:38:58.105Z,50.40
2018-04-24T16:41:26.488Z,51.10
2018-04-24T16:43:54.195Z,51.00
2018-04-24T16:46:21.888Z,51.10
2018-04-24T16:48:56.309Z,51.40
2018-04-24T16:51:23.949Z,51.60
2018-04-24T16:53:52.386Z,52.30
2018-04-24T16:56:20.036Z,52.30
2018-04-24T16:58:47.684Z,52.90
2018-04-24T17:01:15.338Z,52.90
2018-04-24T17:03:43.742Z,52.90
2018-04-24T17:06:18.215Z,53.20
2018-04-24T17:08:45.929Z,53.20
2018-04-24T17:11:14.470Z,53.90
2018-04-24T17:13:42.209Z,53.90
2018-04-24T17:16:10.278Z,53.90
2018-04-24T17:18:37.931Z,54.00
2018-04-24T17:21:05.695Z,54.10
2018-04-24T17:23:33.405Z,54.20
2018-04-24T17:26:01.224Z,54.80
2018-04-24T17:28:28.990Z,54.80
2018-04-24T17:30:57.969Z,55.50
2018-04-24T17:33:25.707Z,55.70
2018-04-24T17:35:58.234Z,55.90
2018-04-24T17:38:26.830Z,56.20
2018-04-24T17:40:54.571Z,56.30
2018-04-24T17:43:22.305Z,56.80
2018-04-24T17:45:50.000Z,57.70
2018-04-24T17:48:17.628Z,58.00
2018-04-24T17:50:45.281Z,58.30
2018-04-24T17:53:12.978Z,59.20
2018-04-24T17:55:40.626Z,60.00
2018-04-24T18:01:10.876Z,61.00
2018-04-24T18:03:39.400Z,62.50
2018-04-24T18:06:07.035Z,62.50
2018-04-24T18:08:34.677Z,63.20
2018-04-24T18:11:02.438Z,63.20
2018-04-24T18:13:30.196Z,63.30
2018-04-24T18:15:57.921Z,64.00
2018-04-24T18:18:25.791Z,64.50
2018-04-24T18:20:53.515Z,65.10
2018-04-24T18:23:21.323Z,65.60
2018-04-24T18:26:01.699Z,66.20
2018-04-24T18:28:30.270Z,66.20
2018-04-24T18:30:57.942Z,66.30
2018-04-24T18:33:25.630Z,66.20
2018-04-24T18:35:53.340Z,66.40
2018-04-24T18:38:21.168Z,66.40
2018-04-24T18:40:48.926Z,66.50
2018-04-24T18:43:16.605Z,66.70
2018-04-24T18:45:44.246Z,67.10
2018-04-24T18:48:12.724Z,67.50
2018-04-24T18:50:40.407Z,67.50
2018-04-24T18:53:08.204Z,67.40
2018-04-24T18:55:35.846Z,67.70
2018-04-24T18:58:03.458Z,67.90
2018-04-24T19:00:31.100Z,68.10
2018-04-24T19:02:59.485Z,68.80
2018-04-24T19:05:27.145Z,68.80
2018-04-24T19:07:55.601Z,70.40
2018-04-24T19:10:23.238Z,69.50
2018-04-24T19:12:50.901Z,69.80
2018-04-24T19:15:18.522Z,70.10
2018-04-24T19:17:46.210Z,70.40
2018-04-24T19:20:13.863Z,70.80
2018-04-24T19:22:41.574Z,70.90
2018-04-24T19:34:01.170Z,70.60
2018-04-24T19:36:28.894Z,70.60
2018-04-24T19:39:03.009Z,71.10
2018-04-24T19:41:36.276Z,71.20
2018-04-24T19:47:02.846Z,71.90
2018-04-24T19:49:36.215Z,72.30
2018-04-24T19:52:03.877Z,72.40
2018-04-24T19:54:32.486Z,72.60
2018-04-24T19:57:00.897Z,73.00
2018-04-24T19:59:28.555Z,72.90
2018-04-24T20:01:56.273Z,73.10
2018-04-24T20:04:24.813Z,73.20
2018-04-24T20:06:52.561Z,73.20
2018-04-24T20:09:20.942Z,73.20
2018-04-24T20:11:48.633Z,73.00
2018-04-24T20:14:16.305Z,73.10
2018-04-24T20:16:44.010Z,73.30
2018-04-24T20:19:11.654Z,73.60
2018-04-24T20:21:39.285Z,73.60
2018-04-24T20:24:06.986Z,73.60
2018-04-24T20:26:34.604Z,73.90
2018-04-24T20:29:03.000Z,74.20
2018-04-24T20:31:31.385Z,74.40
2018-04-24T20:33:59.018Z,74.30
2018-04-24T20:36:26.658Z,74.30
2018-04-24T20:38:54.265Z,74.50
2018-04-24T20:41:22.690Z,75.00
2018-04-24T20:43:50.301Z,75.00
2018-04-24T20:46:17.958Z,75.20
2018-04-24T20:48:45.614Z,75.60
2018-04-24T20:51:13.305Z,75.90
2018-04-24T20:53:41.791Z,76.20
2018-04-24T20:56:09.349Z,76.20
2018-04-24T20:58:36.993Z,76.30
2018-04-24T21:01:05.491Z,76.80
2018-04-24T21:03:33.786Z,76.80
2018-04-24T21:06:01.400Z,76.70
2018-04-24T21:08:29.029Z,76.90
2018-04-24T21:10:56.637Z,77.00
2018-04-24T21:13:25.066Z,77.30
2018-04-24T21:15:53.470Z,77.20
2018-04-24T21:44:40.432Z,78.00
2018-04-24T21:47:08.685Z,78.30
2018-04-24T21:49:36.289Z,78.60
2018-04-24T21:52:03.930Z,78.70
2018-04-24T21:54:31.570Z,79.00
2018-04-24T21:56:59.958Z,79.30
2018-04-24T21:59:27.585Z,79.30
2018-04-24T22:01:56.163Z,79.60
2018-04-24T22:04:25.127Z,79.80
2018-04-24T22:06:53.537Z,80.40
2018-04-24T22:09:21.937Z,79.70
2018-04-24T22:11:49.577Z,79.60
2018-04-24T22:14:17.206Z,80.00
2018-04-24T22:16:44.837Z,80.40
2018-04-24T22:19:12.529Z,80.50
2018-04-24T22:21:40.153Z,80.70
2018-04-24T22:24:07.768Z,80.90
2018-04-24T22:26:36.174Z,80.90
2018-04-24T22:29:04.573Z,81.00
2018-04-24T22:31:32.917Z,81.20
2018-04-24T22:34:00.520Z,81.20
2018-04-24T22:36:28.089Z,81.30
2018-04-24T22:38:55.733Z,81.30
2018-04-24T22:41:23.318Z,81.40
2018-04-24T22:43:51.681Z,81.60
2018-04-24T22:46:19.291Z,81.60
2018-04-24T22:48:46.868Z,81.80
2018-04-24T22:51:14.464Z,81.90
2018-04-24T22:53:42.041Z,82.00
2018-04-24T22:56:09.656Z,82.10
2018-04-24T22:58:37.998Z,82.40
2018-04-24T23:01:05.609Z,82.40
2018-04-24T23:03:33.210Z,83.20
2018-04-24T23:06:00.790Z,82.60
2018-04-24T23:08:28.393Z,82.70
2018-04-24T23:11:08.588Z,82.90
2018-04-24T23:13:49.316Z,83.00
2018-04-24T23:16:28.601Z,83.00
2018-04-24T23:19:08.040Z,83.00
2018-04-24T23:21:35.120Z,83.00
2018-04-24T23:24:02.720Z,83.10
2018-04-24T23:26:30.329Z,83.20
2018-04-24T23:28:58.728Z,83.20
2018-04-24T23:31:26.309Z,83.30
2018-04-24T23:33:55.156Z,84.00
2018-04-24T23:36:23.508Z,83.20
2018-04-24T23:38:51.121Z,83.30
2018-04-24T23:41:18.713Z,83.10
2018-04-24T23:43:46.324Z,83.10
2018-04-24T23:46:14.690Z,83.30
2018-04-24T23:48:42.298Z,83.30
2018-04-24T23:51:09.876Z,83.40
2018-04-24T23:53:37.480Z,83.60
2018-04-24T23:56:05.709Z,83.60
2018-04-24T23:58:33.340Z,83.60
